Swainsboro, GA

6:20 AM EDT on May 24, 2018 (GMT -0400)
Emanuel County

Weather History for KSBO - November, 2012

Change the Weather History Date:

Saturday, November 10, 2012

  Actual Average Record
Temperature  
Mean Temperature 54 °F -  
Max Temperature 73 °F 71 °F 75 °F (2014)
Min Temperature 35 °F 48 °F 39 °F (2014)
Degree Days  
Heating Degree Days 11    
Growing Degree Days 4 (Base 50)    
Moisture  
Dew Point 40 °F    
Average Humidity 68    
Maximum Humidity 100    
Minimum Humidity 27    
Precipitation  
Precipitation 0.00 in - - ()
Sea Level Pressure  
Sea Level Pressure 30.33 in    
Wind  
Wind Speed 1 mph ()    
Max Wind Speed 6 mph    
Max Gust Speed -    
Visibility 10.0 miles    
Events      
Averages and records for this station are not official NWS values.
T = Trace of Precipitation, MM = Missing Value Source: Averaged Metar Reports

Daily Weather History Graph

Daily Weather History Graph

Search for Another Location

Airport or City:

Astronomy

Nov. 10, 2012 Rise Set
Actual Time 6:55 AM EST 5:31 PM EST
Civil Twilight 6:29 AM EST 5:57 PM EST
Nautical Twilight 5:59 AM EST 6:26 PM EST
Astronomical Twilight 5:30 AM EST 6:55 PM EST
Moon 3:09 AM EST (11/10) 3:08 PM EST (11/10)
Length of Visible Light 11h 27m
Length of Day
10h 36m
Waning Crescent, 14% of the Moon is Illuminated
Nov 10
Waning Crescent
Nov 13
New
Nov 20
First Quarter
Nov 28
Full
Dec 6
Last Quarter

Hourly Weather History & Observations

Time (EST) Temp. Dew Point Humidity Pressure Visibility Wind Dir Wind Speed Gust Speed Precip Events Conditions
12:15 AM 39.2 °F 37.4 °F 93% 30.28 in 10.0 mi Calm Calm - N/A   Clear
12:35 AM 41.0 °F 39.2 °F 93% 30.27 in 10.0 mi Calm Calm - N/A   Clear
12:55 AM 41.0 °F 41.0 °F 100% 30.28 in 10.0 mi Calm Calm - N/A   Clear
1:15 AM 41.0 °F 37.4 °F 87% 30.28 in 10.0 mi Calm Calm - N/A   Clear
1:35 AM 39.2 °F 37.4 °F 93% 30.29 in 10.0 mi Calm Calm - N/A   Clear
1:55 AM 37.4 °F 37.4 °F 100% 30.29 in 10.0 mi Calm Calm - N/A   Clear
2:15 AM 41.0 °F 41.0 °F 100% 30.28 in 10.0 mi Calm Calm - N/A   Clear
2:35 AM 41.0 °F 41.0 °F 100% 30.29 in 10.0 mi Calm Calm - N/A   Clear
2:55 AM 39.2 °F 39.2 °F 100% 30.30 in 10.0 mi Calm Calm - N/A   Clear
3:15 AM 39.2 °F 39.2 °F 100% 30.30 in 10.0 mi Calm Calm - N/A   Clear
3:35 AM 37.4 °F 37.4 °F 100% 30.30 in 10.0 mi Calm Calm - N/A   Clear
3:55 AM 37.4 °F 37.4 °F 100% 30.30 in 10.0 mi Calm Calm - N/A   Clear
4:15 AM 37.4 °F 37.4 °F 100% 30.30 in 10.0 mi Calm Calm - N/A   Clear
4:35 AM 37.4 °F 37.4 °F 100% 30.30 in 10.0 mi Calm Calm - N/A   Clear
4:55 AM 37.4 °F 37.4 °F 100% 30.31 in 10.0 mi Calm Calm - N/A   Clear
5:15 AM 37.4 °F 37.4 °F 100% 30.31 in 10.0 mi Calm Calm - N/A   Clear
5:35 AM 37.4 °F 37.4 °F 100% 30.32 in 10.0 mi Calm Calm - N/A   Clear
5:55 AM 35.6 °F 35.6 °F 100% 30.32 in 10.0 mi Calm Calm - N/A   Clear
6:15 AM 35.6 °F 35.6 °F 100% 30.33 in 10.0 mi Calm Calm - N/A   Clear
6:35 AM 35.6 °F 35.6 °F 100% 30.33 in 7.0 mi Calm Calm - N/A   Clear
6:55 AM 35.6 °F 35.6 °F 100% 30.34 in 10.0 mi Calm Calm - N/A   Clear
7:15 AM 37.4 °F 37.4 °F 100% 30.35 in 10.0 mi Calm Calm - N/A   Clear
7:35 AM 39.2 °F 39.2 °F 100% 30.36 in 10.0 mi Calm Calm - N/A   Clear
7:55 AM 42.8 °F 42.8 °F 100% 30.36 in 10.0 mi Calm Calm - N/A   Clear
8:15 AM 44.6 °F 44.6 °F 100% 30.36 in 10.0 mi Calm Calm - N/A   Clear
8:35 AM 48.2 °F 46.4 °F 93% 30.37 in 10.0 mi Calm Calm - N/A   Clear
8:55 AM 51.8 °F 44.6 °F 76% 30.37 in 10.0 mi Calm Calm - N/A   Clear
9:15 AM 53.6 °F 44.6 °F 72% 30.38 in 10.0 mi Calm Calm - N/A   Clear
9:35 AM 57.2 °F 44.6 °F 63% 30.39 in 10.0 mi Calm Calm - N/A   Clear
9:55 AM 59.0 °F 41.0 °F 51% 30.38 in 10.0 mi Calm Calm - N/A   Clear
10:15 AM 62.6 °F 41.0 °F 45% 30.38 in 10.0 mi Calm Calm - N/A   Clear
10:35 AM 64.4 °F 39.2 °F 40% 30.38 in 10.0 mi South 3.5 mph - N/A   Clear
10:55 AM 64.4 °F 41.0 °F 42% 30.38 in 10.0 mi Calm Calm - N/A   Clear
11:15 AM 68.0 °F 39.2 °F 35% 30.37 in 10.0 mi Calm Calm - N/A   Clear
11:35 AM 68.0 °F 39.2 °F 35% 30.36 in 10.0 mi Calm Calm - N/A   Clear
11:55 AM 69.8 °F 37.4 °F 31% 30.36 in 10.0 mi ESE 3.5 mph - N/A   Clear
12:15 PM 69.8 °F 37.4 °F 31% 30.34 in 10.0 mi Calm Calm - N/A   Clear
12:35 PM 69.8 °F 35.6 °F 28% 30.34 in 10.0 mi SSW 4.6 mph - N/A   Clear
12:55 PM 71.6 °F 35.6 °F 27% 30.32 in 10.0 mi Calm Calm - N/A   Clear
1:15 PM 71.6 °F 37.4 °F 29% 30.31 in 10.0 mi ESE 3.5 mph - N/A   Clear
1:35 PM 71.6 °F 37.4 °F 29% 30.31 in 10.0 mi Calm Calm - N/A   Clear
1:55 PM 71.6 °F 37.4 °F 29% 30.31 in 10.0 mi SSE 5.8 mph - N/A   Clear
2:15 PM 71.6 °F 37.4 °F 29% 30.30 in 10.0 mi SSE 4.6 mph - N/A   Clear
2:35 PM 71.6 °F 37.4 °F 29% 30.29 in 10.0 mi SSE 3.5 mph - N/A   Clear
2:55 PM 73.4 °F 37.4 °F 27% 30.29 in 10.0 mi South 4.6 mph - N/A   Clear
3:15 PM 71.6 °F 37.4 °F 29% 30.29 in 10.0 mi SSW 3.5 mph - N/A   Clear
3:35 PM 71.6 °F 37.4 °F 29% 30.29 in 10.0 mi Calm Calm - N/A   Clear
3:55 PM 71.6 °F 37.4 °F 29% 30.30 in 10.0 mi Calm Calm - N/A   Clear
4:15 PM 71.6 °F 37.4 °F 29% 30.30 in 10.0 mi South 4.6 mph - N/A   Clear
4:35 PM 71.6 °F 37.4 °F 29% 30.30 in 10.0 mi South 4.6 mph - N/A   Clear
4:55 PM 69.8 °F 37.4 °F 31% 30.30 in 10.0 mi South 3.5 mph - N/A   Clear
5:15 PM 68.0 °F 37.4 °F 33% 30.30 in 10.0 mi Calm Calm - N/A   Clear
5:35 PM 62.6 °F 41.0 °F 45% 30.31 in 10.0 mi Calm Calm - N/A   Clear
5:55 PM 59.0 °F 42.8 °F 55% 30.32 in 10.0 mi Calm Calm - N/A   Clear
6:15 PM 55.4 °F 41.0 °F 58% 30.32 in 10.0 mi Calm Calm - N/A   Clear
6:35 PM 53.6 °F 42.8 °F 67% 30.33 in 10.0 mi Calm Calm - N/A   Clear
6:55 PM 51.8 °F 42.8 °F 71% 30.33 in 10.0 mi Calm Calm - N/A   Clear
7:15 PM 50.0 °F 42.8 °F 76% 30.34 in 10.0 mi Calm Calm - N/A   Clear
7:35 PM 53.6 °F 42.8 °F 67% 30.34 in 10.0 mi Calm Calm - N/A   Clear
7:55 PM 51.8 °F 42.8 °F 71% 30.34 in 10.0 mi Calm Calm - N/A   Clear
8:15 PM 50.0 °F 42.8 °F 76% 30.34 in 10.0 mi Calm Calm - N/A   Clear
8:35 PM 51.8 °F 41.0 °F 67% 30.35 in 10.0 mi SE 3.5 mph - N/A   Clear
8:55 PM 53.6 °F 41.0 °F 62% 30.36 in 10.0 mi SE 3.5 mph - N/A   Clear
9:15 PM 53.6 °F 42.8 °F 67% 30.36 in 10.0 mi SE 3.5 mph - N/A   Clear
9:35 PM 53.6 °F 42.8 °F 67% 30.37 in 10.0 mi Calm Calm - N/A   Clear
9:55 PM 51.8 °F 42.8 °F 71% 30.37 in 10.0 mi SE 3.5 mph - N/A   Clear
10:15 PM 51.8 °F 42.8 °F 71% 30.37 in 10.0 mi ESE 3.5 mph - N/A   Clear
10:35 PM 50.0 °F 42.8 °F 76% 30.37 in 10.0 mi ESE 3.5 mph - N/A   Clear
11:35 PM 48.2 °F 42.8 °F 82% 30.37 in 10.0 mi Calm Calm - N/A   Clear
11:55 PM 46.4 °F 42.8 °F 87% 30.37 in 10.0 mi Calm Calm - N/A   Clear